createdAt,value
2023-03-06T06:02:57.226Z,5.13
2023-03-06T06:05:34.149Z,5.10
2023-03-06T06:08:04.142Z,5.09
2023-03-06T06:10:41.224Z,5.05
2023-03-06T06:13:18.147Z,5.01
2023-03-06T06:15:48.210Z,5.00
2023-03-06T06:18:28.233Z,4.97
2023-03-06T06:21:05.173Z,4.96
2023-03-06T06:23:35.376Z,4.96
2023-03-06T06:26:14.213Z,4.94
2023-03-06T06:28:44.430Z,4.94
2023-03-06T06:31:23.199Z,4.95
2023-03-06T06:33:56.002Z,4.94
2023-03-06T06:36:33.185Z,4.94
2023-03-06T06:39:10.186Z,4.93
2023-03-06T06:41:55.280Z,4.94
2023-03-06T06:44:36.188Z,4.97
2023-03-06T06:47:23.001Z,4.98
2023-03-06T06:49:59.011Z,4.99
2023-03-06T06:52:36.244Z,5.02
2023-03-06T06:55:06.539Z,5.05
2023-03-06T06:57:43.246Z,5.09
2023-03-06T07:00:24.232Z,5.12
2023-03-06T07:02:54.389Z,5.17
2023-03-06T07:05:33.522Z,5.21
2023-03-06T07:08:10.271Z,5.27
2023-03-06T07:10:43.487Z,5.31
2023-03-06T07:13:20.363Z,5.36
2023-03-06T07:15:57.297Z,5.42
2023-03-06T07:18:27.501Z,5.45
2023-03-06T07:21:07.300Z,5.49
2023-03-06T07:23:44.243Z,5.52
2023-03-06T07:26:14.440Z,5.53
2023-03-06T07:28:52.943Z,5.59
2023-03-06T07:31:31.383Z,5.66
2023-03-06T07:34:04.445Z,5.74
2023-03-06T07:36:47.301Z,5.82
2023-03-06T07:39:24.326Z,5.93
2023-03-06T07:41:54.610Z,6.10
2023-03-06T07:44:31.331Z,6.19
2023-03-06T07:47:01.348Z,6.32
2023-03-06T07:49:38.314Z,6.42
2023-03-06T07:52:10.982Z,6.47
2023-03-06T07:54:47.350Z,6.55
2023-03-06T07:57:17.343Z,6.63
2023-03-06T07:59:54.367Z,6.68
2023-03-06T08:02:24.516Z,6.71
2023-03-06T08:05:04.296Z,6.82
2023-03-06T08:07:44.316Z,7.16
2023-03-06T08:10:18.308Z,7.72
2023-03-06T08:12:54.382Z,8.26
2023-03-06T08:15:24.422Z,8.83
2023-03-06T08:18:01.346Z,9.27
2023-03-06T08:20:38.324Z,9.62
2023-03-06T08:23:12.001Z,9.94
2023-03-06T08:25:48.394Z,10.15
2023-03-06T08:28:25.344Z,10.39
2023-03-06T08:30:55.406Z,10.56
2023-03-06T08:33:34.395Z,10.73
2023-03-06T08:36:04.453Z,10.91
2023-03-06T08:38:43.446Z,11.19
2023-03-06T08:41:20.480Z,11.55
2023-03-06T08:43:50.917Z,11.90
2023-03-06T08:46:30.343Z,12.35
2023-03-06T08:49:07.371Z,12.89
2023-03-06T08:51:37.443Z,13.38
2023-03-06T08:54:16.378Z,13.86
2023-03-06T08:56:46.443Z,14.27
2023-03-06T08:59:23.367Z,14.61
2023-03-06T09:02:00.483Z,14.96
2023-03-06T09:04:33.812Z,15.36
2023-03-06T09:07:10.376Z,15.73
2023-03-06T09:09:43.036Z,15.85
2023-03-06T09:12:19.401Z,15.96
2023-03-06T09:14:49.436Z,16.08
2023-03-06T09:17:26.450Z,16.42
2023-03-06T09:19:56.598Z,16.67
2023-03-06T09:22:33.404Z,16.63
2023-03-06T09:25:06.945Z,16.41
2023-03-06T09:27:43.461Z,16.35
2023-03-06T09:30:22.516Z,16.34
2023-03-06T09:32:52.563Z,16.42
2023-03-06T09:35:29.532Z,16.40
2023-03-06T09:38:06.437Z,16.37
2023-03-06T09:40:51.678Z,16.26
2023-03-06T09:43:34.463Z,16.32
2023-03-06T09:46:09.508Z,16.20
2023-03-06T09:48:56.440Z,15.99
2023-03-06T09:51:34.243Z,15.68
2023-03-06T09:54:19.484Z,15.32
2023-03-06T09:56:53.422Z,14.96
2023-03-06T09:59:33.456Z,14.72
2023-03-06T10:02:15.593Z,14.41
2023-03-06T10:04:58.510Z,14.15
2023-03-06T10:07:43.690Z,13.91
2023-03-06T10:10:30.506Z,13.87
2023-03-06T10:13:09.258Z,13.81
2023-03-06T10:15:50.613Z,13.84
2023-03-06T10:18:20.926Z,13.97
2023-03-06T10:21:18.478Z,14.16
2023-03-06T10:23:56.769Z,14.41
2023-03-06T10:26:36.597Z,14.75
2023-03-06T10:30:00.109Z,14.67
2023-03-06T10:32:49.772Z,14.92
2023-03-06T10:35:25.705Z,15.19
2023-03-06T10:38:28.519Z,15.36
2023-03-06T10:41:25.567Z,15.46
2023-03-06T10:44:24.154Z,15.37
2023-03-06T10:47:03.555Z,15.17
2023-03-06T10:49:36.760Z,14.95
2023-03-06T10:52:29.574Z,15.03
2023-03-06T10:55:32.592Z,14.82
2023-03-06T10:58:21.659Z,14.50
2023-03-06T11:01:13.666Z,14.35
2023-03-06T11:03:50.584Z,14.28
2023-03-06T11:06:36.078Z,13.93
2023-03-06T11:09:25.590Z,13.94
2023-03-06T11:12:15.980Z,14.28
2023-03-06T11:14:52.604Z,14.53
2023-03-06T11:17:34.745Z,14.42
2023-03-06T11:20:27.788Z,14.04
2023-03-06T11:23:05.815Z,13.89
2023-03-06T11:25:46.636Z,13.65
2023-03-06T11:28:24.587Z,13.48
2023-03-06T11:31:05.591Z,13.46
2023-03-06T11:33:46.542Z,13.09
2023-03-06T11:36:32.566Z,12.91
2023-03-06T11:39:02.901Z,12.53
2023-03-06T11:42:00.645Z,12.43
2023-03-06T11:44:45.359Z,12.43
2023-03-06T11:47:28.653Z,12.73
2023-03-06T11:50:19.234Z,12.84
2023-03-06T11:53:01.724Z,12.94
2023-03-06T11:55:46.048Z,13.25
2023-03-06T11:59:00.663Z,13.37
2023-03-06T12:01:38.356Z,13.43
2023-03-06T12:04:55.657Z,13.66
2023-03-06T12:07:39.675Z,14.07
2023-03-06T12:10:20.255Z,14.23
2023-03-06T12:13:31.649Z,14.40
2023-03-06T12:16:25.997Z,14.27
2023-03-06T12:19:11.678Z,14.08
2023-03-06T12:21:54.045Z,13.79
2023-03-06T12:25:05.655Z,13.60
2023-03-06T12:27:54.656Z,13.50
2023-03-06T12:30:41.891Z,13.42
2023-03-06T12:33:30.683Z,13.26
2023-03-06T12:36:16.921Z,13.12
2023-03-06T12:39:11.664Z,13.00
2023-03-06T12:42:08.886Z,12.84
2023-03-06T12:45:09.762Z,12.86
2023-03-06T12:47:52.679Z,12.93
2023-03-06T12:50:27.481Z,12.81
2023-03-06T12:53:07.731Z,12.82
2023-03-06T12:55:50.769Z,12.67
2023-03-06T12:58:54.534Z,12.50
2023-03-06T13:02:15.822Z,12.29
2023-03-06T13:05:03.744Z,12.28
2023-03-06T13:08:00.751Z,12.13
2023-03-06T13:10:33.683Z,12.11
2023-03-06T13:13:11.767Z,12.16
2023-03-06T13:15:47.259Z,12.16
2023-03-06T13:19:10.765Z,11.97
2023-03-06T13:22:30.006Z,12.13
2023-03-06T13:25:43.783Z,12.28
2023-03-06T13:28:27.889Z,12.24
2023-03-06T13:31:10.625Z,12.37
2023-03-06T13:34:00.782Z,12.39
2023-03-06T13:36:42.732Z,12.48
2023-03-06T13:39:13.354Z,12.42
2023-03-06T13:42:08.737Z,12.27
2023-03-06T13:44:53.799Z,12.22
2023-03-06T13:48:19.516Z,12.20
2023-03-06T13:50:52.827Z,12.14
2023-03-06T13:54:02.875Z,11.95
2023-03-06T13:57:19.784Z,11.88
2023-03-06T14:00:27.805Z,11.76
